sensor_id;sensor_type;location;lat;lon;timestamp;pressure;altitude;pressure_sealevel;temperature;humidity
70072;BME280;57434;42.794;23.302;2023-02-16T00:00:54;96933.31;;;-5.12;71.91
70072;BME280;57434;42.794;23.302;2023-02-16T00:01:56;96912.03;;;-4.99;71.71
70072;BME280;57434;42.794;23.302;2023-02-16T00:02:58;96983.00;;;-4.71;71.81
70072;BME280;57434;42.794;23.302;2023-02-16T00:04:00;96794.69;;;-5.81;71.62
70072;BME280;57434;42.794;23.302;2023-02-16T00:06:27;96848.63;;;-5.24;71.54
70072;BME280;57434;42.794;23.302;2023-02-16T00:07:29;96958.78;;;-4.69;71.43
70072;BME280;57434;42.794;23.302;2023-02-16T00:08:30;96958.84;;;-4.46;71.67
70072;BME280;57434;42.794;23.302;2023-02-16T00:09:32;96949.31;;;-4.52;71.50
70072;BME280;57434;42.794;23.302;2023-02-16T00:10:36;96858.28;;;-5.11;71.76
70072;BME280;57434;42.794;23.302;2023-02-16T00:11:38;96926.97;;;-4.54;71.34
70072;BME280;57434;42.794;23.302;2023-02-16T00:12:40;96959.19;;;-4.48;71.74
70072;BME280;57434;42.794;23.302;2023-02-16T00:13:42;96966.59;;;-4.29;71.71
70072;BME280;57434;42.794;23.302;2023-02-16T00:14:44;96950.28;;;-4.22;71.39
70072;BME280;57434;42.794;23.302;2023-02-16T00:15:46;96896.69;;;-5.03;71.03
70072;BME280;57434;42.794;23.302;2023-02-16T00:16:49;96919.50;;;-4.57;71.03
70072;BME280;57434;42.794;23.302;2023-02-16T00:17:51;96938.00;;;-4.51;71.16
70072;BME280;57434;42.794;23.302;2023-02-16T00:18:54;96964.66;;;-4.28;70.98
70072;BME280;57434;42.794;23.302;2023-02-16T00:19:55;96863.50;;;-5.02;71.12
70072;BME280;57434;42.794;23.302;2023-02-16T00:20:57;96969.78;;;-4.46;71.10
70072;BME280;57434;42.794;23.302;2023-02-16T00:21:59;96927.41;;;-4.52;71.19
70072;BME280;57434;42.794;23.302;2023-02-16T00:23:01;96964.81;;;-4.41;70.94
70072;BME280;57434;42.794;23.302;2023-02-16T00:24:03;96972.53;;;-4.46;70.76
70072;BME280;57434;42.794;23.302;2023-02-16T00:25:05;96961.22;;;-4.45;70.42
70072;BME280;57434;42.794;23.302;2023-02-16T00:26:16;96816.25;;;-5.41;70.47
70072;BME280;57434;42.794;23.302;2023-02-16T00:27:18;96931.53;;;-4.81;70.67
70072;BME280;57434;42.794;23.302;2023-02-16T00:28:20;96946.38;;;-4.82;70.90
70072;BME280;57434;42.794;23.302;2023-02-16T00:29:32;96961.66;;;-4.62;71.05
70072;BME280;57434;42.794;23.302;2023-02-16T00:30:34;96917.22;;;-4.94;71.10
70072;BME280;57434;42.794;23.302;2023-02-16T00:31:36;96855.00;;;-5.35;70.85
70072;BME280;57434;42.794;23.302;2023-02-16T00:32:38;96952.59;;;-4.85;71.30
70072;BME280;57434;42.794;23.302;2023-02-16T00:33:40;96959.72;;;-4.81;71.46
70072;BME280;57434;42.794;23.302;2023-02-16T00:34:42;96919.22;;;-5.10;71.63
70072;BME280;57434;42.794;23.302;2023-02-16T00:35:44;96937.53;;;-5.14;71.70
70072;BME280;57434;42.794;23.302;2023-02-16T00:36:46;96960.94;;;-5.17;71.35
70072;BME280;57434;42.794;23.302;2023-02-16T00:37:48;96916.72;;;-5.38;70.81
70072;BME280;57434;42.794;23.302;2023-02-16T00:38:50;96967.34;;;-5.09;70.73
70072;BME280;57434;42.794;23.302;2023-02-16T00:39:52;96867.09;;;-5.91;71.08
70072;BME280;57434;42.794;23.302;2023-02-16T00:40:54;96999.06;;;-5.24;71.22
70072;BME280;57434;42.794;23.302;2023-02-16T00:42:10;96957.22;;;-5.44;71.05
70072;BME280;57434;42.794;23.302;2023-02-16T00:43:23;96952.56;;;-5.24;70.96
70072;BME280;57434;42.794;23.302;2023-02-16T00:45:02;96930.69;;;-5.24;70.95
70072;BME280;57434;42.794;23.302;2023-02-16T00:46:04;96948.63;;;-5.07;70.79
70072;BME280;57434;42.794;23.302;2023-02-16T00:48:13;96975.97;;;-5.07;71.36
70072;BME280;57434;42.794;23.302;2023-02-16T00:49:20;96803.31;;;-5.98;71.55
70072;BME280;57434;42.794;23.302;2023-02-16T00:50:27;96985.66;;;-4.94;71.61
70072;BME280;57434;42.794;23.302;2023-02-16T00:51:29;96904.56;;;-5.21;70.88
70072;BME280;57434;42.794;23.302;2023-02-16T00:52:34;96953.44;;;-4.81;70.19
70072;BME280;57434;42.794;23.302;2023-02-16T00:53:36;96959.78;;;-4.96;70.08
70072;BME280;57434;42.794;23.302;2023-02-16T00:54:38;96961.50;;;-5.07;70.58
70072;BME280;57434;42.794;23.302;2023-02-16T00:55:41;96967.78;;;-5.07;71.01
70072;BME280;57434;42.794;23.302;2023-02-16T00:56:44;96938.47;;;-5.26;71.09
70072;BME280;57434;42.794;23.302;2023-02-16T00:57:50;96963.25;;;-4.99;71.28
70072;BME280;57434;42.794;23.302;2023-02-16T00:58:53;96928.19;;;-4.94;71.19
70072;BME280;57434;42.794;23.302;2023-02-16T00:59:59;96925.44;;;-4.94;72.52
70072;BME280;57434;42.794;23.302;2023-02-16T01:01:10;96951.00;;;-5.05;74.11
70072;BME280;57434;42.794;23.302;2023-02-16T01:02:13;96807.81;;;-6.06;73.90
70072;BME280;57434;42.794;23.302;2023-02-16T01:03:19;96978.94;;;-4.96;74.72
70072;BME280;57434;42.794;23.302;2023-02-16T01:04:22;96933.56;;;-4.97;74.80
70072;BME280;57434;42.794;23.302;2023-02-16T01:05:24;96893.59;;;-5.02;74.50
70072;BME280;57434;42.794;23.302;2023-02-16T01:06:26;96911.91;;;-4.87;74.62
70072;BME280;57434;42.794;23.302;2023-02-16T01:07:27;96959.34;;;-4.98;75.08
70072;BME280;57434;42.794;23.302;2023-02-16T01:08:29;96953.53;;;-4.78;75.14
70072;BME280;57434;42.794;23.302;2023-02-16T01:09:31;96935.59;;;-4.75;74.93
70072;BME280;57434;42.794;23.302;2023-02-16T01:10:34;96786.06;;;-5.64;74.69
70072;BME280;57434;42.794;23.302;2023-02-16T01:11:37;96798.03;;;-5.53;74.72
70072;BME280;57434;42.794;23.302;2023-02-16T01:12:39;96936.16;;;-4.66;74.57
70072;BME280;57434;42.794;23.302;2023-02-16T01:13:45;96962.91;;;-4.59;74.23
70072;BME280;57434;42.794;23.302;2023-02-16T01:14:51;96966.00;;;-4.61;74.05
70072;BME280;57434;42.794;23.302;2023-02-16T01:15:54;96799.16;;;-5.54;73.81
70072;BME280;57434;42.794;23.302;2023-02-16T01:16:56;96830.34;;;-5.39;73.93
70072;BME280;57434;42.794;23.302;2023-02-16T01:17:58;96922.53;;;-4.82;73.90
70072;BME280;57434;42.794;23.302;2023-02-16T01:18:59;96872.88;;;-5.22;74.23
70072;BME280;57434;42.794;23.302;2023-02-16T01:20:01;96918.22;;;-5.21;74.20
70072;BME280;57434;42.794;23.302;2023-02-16T01:21:03;96960.81;;;-4.85;74.37
70072;BME280;57434;42.794;23.302;2023-02-16T01:22:05;96912.13;;;-5.15;74.00
70072;BME280;57434;42.794;23.302;2023-02-16T01:23:07;96927.66;;;-5.19;73.97
70072;BME280;57434;42.794;23.302;2023-02-16T01:24:08;96895.56;;;-5.22;73.62
70072;BME280;57434;42.794;23.302;2023-02-16T01:25:10;96925.09;;;-5.12;73.03
70072;BME280;57434;42.794;23.302;2023-02-16T01:26:15;96952.22;;;-5.03;73.27
70072;BME280;57434;42.794;23.302;2023-02-16T01:27:17;96945.09;;;-5.07;73.09
70072;BME280;57434;42.794;23.302;2023-02-16T01:28:21;96934.41;;;-5.32;73.04
70072;BME280;57434;42.794;23.302;2023-02-16T01:29:24;96946.06;;;-5.35;73.47
70072;BME280;57434;42.794;23.302;2023-02-16T01:30:25;96932.13;;;-5.30;73.46
70072;BME280;57434;42.794;23.302;2023-02-16T01:31:28;96952.31;;;-4.99;73.39
70072;BME280;57434;42.794;23.302;2023-02-16T01:32:29;96926.59;;;-5.14;73.10
70072;BME280;57434;42.794;23.302;2023-02-16T01:33:31;96939.41;;;-4.80;73.20
70072;BME280;57434;42.794;23.302;2023-02-16T01:34:33;96790.81;;;-5.61;72.75
70072;BME280;57434;42.794;23.302;2023-02-16T01:35:35;96938.91;;;-4.66;72.53
70072;BME280;57434;42.794;23.302;2023-02-16T01:36:39;96949.91;;;-5.01;72.09
70072;BME280;57434;42.794;23.302;2023-02-16T01:37:42;96937.97;;;-5.12;72.42
70072;BME280;57434;42.794;23.302;2023-02-16T01:38:43;96906.78;;;-5.62;73.01
70072;BME280;57434;42.794;23.302;2023-02-16T01:39:45;96926.63;;;-5.49;72.92
70072;BME280;57434;42.794;23.302;2023-02-16T01:43:55;96916.66;;;-5.57;72.89
70072;BME280;57434;42.794;23.302;2023-02-16T01:45:03;96770.81;;;-6.54;72.70
70072;BME280;57434;42.794;23.302;2023-02-16T01:46:42;96911.03;;;-5.64;72.91
70072;BME280;57434;42.794;23.302;2023-02-16T01:47:53;96902.34;;;-5.70;73.28
70072;BME280;57434;42.794;23.302;2023-02-16T01:48:56;96931.97;;;-5.72;72.91
70072;BME280;57434;42.794;23.302;2023-02-16T01:49:58;96901.28;;;-5.65;72.79
70072;BME280;57434;42.794;23.302;2023-02-16T01:51:11;96929.28;;;-5.53;72.85
70072;BME280;57434;42.794;23.302;2023-02-16T01:52:31;96893.53;;;-5.79;73.30
70072;BME280;57434;42.794;23.302;2023-02-16T01:53:45;96904.66;;;-5.53;73.08
70072;BME280;57434;42.794;23.302;2023-02-16T01:54:53;96920.09;;;-5.45;72.60
70072;BME280;57434;42.794;23.302;2023-02-16T01:56:01;96939.75;;;-5.39;72.67
70072;BME280;57434;42.794;23.302;2023-02-16T01:58:32;96922.91;;;-5.22;71.89
70072;BME280;57434;42.794;23.302;2023-02-16T02:01:55;96919.81;;;-5.20;71.66
70072;BME280;57434;42.794;23.302;2023-02-16T02:03:00;96901.50;;;-5.35;71.34
70072;BME280;57434;42.794;23.302;2023-02-16T02:05:02;96915.53;;;-5.37;71.87
70072;BME280;57434;42.794;23.302;2023-02-16T02:05:37;96891.66;;;-5.75;71.63
70072;BME280;57434;42.794;23.302;2023-02-16T02:06:39;96900.84;;;-5.48;71.77
70072;BME280;57434;42.794;23.302;2023-02-16T02:09:01;96910.31;;;-5.61;72.79
70072;BME280;57434;42.794;23.302;2023-02-16T02:10:12;96930.91;;;-5.83;73.13
70072;BME280;57434;42.794;23.302;2023-02-16T02:11:45;96874.88;;;-5.93;73.05
70072;BME280;57434;42.794;23.302;2023-02-16T02:14:08;96884.44;;;-5.83;72.90
70072;BME280;57434;42.794;23.302;2023-02-16T02:15:12;96916.50;;;-5.64;72.71
70072;BME280;57434;42.794;23.302;2023-02-16T02:16:22;96904.06;;;-5.62;72.64
70072;BME280;57434;42.794;23.302;2023-02-16T02:17:25;96890.34;;;-5.65;72.49
70072;BME280;57434;42.794;23.302;2023-02-16T02:18:27;96883.56;;;-5.71;72.02
70072;BME280;57434;42.794;23.302;2023-02-16T02:19:31;96746.94;;;-6.41;71.75
70072;BME280;57434;42.794;23.302;2023-02-16T02:27:26;96939.38;;;-5.88;72.21
70072;BME280;57434;42.794;23.302;2023-02-16T02:31:18;96903.47;;;-5.71;71.97
70072;BME280;57434;42.794;23.302;2023-02-16T02:33:58;96734.22;;;-6.85;71.84
70072;BME280;57434;42.794;23.302;2023-02-16T02:36:41;96886.44;;;-6.15;72.24
70072;BME280;57434;42.794;23.302;2023-02-16T02:38:13;96900.16;;;-6.12;72.16
70072;BME280;57434;42.794;23.302;2023-02-16T02:39:33;96981.06;;;-6.07;72.79
70072;BME280;57434;42.794;23.302;2023-02-16T02:43:13;96906.50;;;-5.92;72.67
70072;BME280;57434;42.794;23.302;2023-02-16T02:44:20;96918.06;;;-6.14;72.69
70072;BME280;57434;42.794;23.302;2023-02-16T02:45:27;96800.16;;;-6.98;72.91
70072;BME280;57434;42.794;23.302;2023-02-16T02:46:34;96841.72;;;-6.58;72.91
70072;BME280;57434;42.794;23.302;2023-02-16T02:47:38;96904.03;;;-6.44;73.30
70072;BME280;57434;42.794;23.302;2023-02-16T02:48:40;96899.66;;;-6.49;73.55
70072;BME280;57434;42.794;23.302;2023-02-16T02:49:50;96922.09;;;-6.39;73.44
70072;BME280;57434;42.794;23.302;2023-02-16T02:50:56;96896.38;;;-6.38;73.55
70072;BME280;57434;42.794;23.302;2023-02-16T02:51:59;96767.69;;;-7.19;72.89
70072;BME280;57434;42.794;23.302;2023-02-16T02:53:06;96866.97;;;-6.29;72.74
70072;BME280;57434;42.794;23.302;2023-02-16T02:54:11;96910.19;;;-5.84;72.36
70072;BME280;57434;42.794;23.302;2023-02-16T02:55:14;96901.47;;;-5.90;71.71
70072;BME280;57434;42.794;23.302;2023-02-16T02:56:16;96906.56;;;-5.88;71.66
70072;BME280;57434;42.794;23.302;2023-02-16T02:57:32;96975.53;;;-5.79;71.54
70072;BME280;57434;42.794;23.302;2023-02-16T02:58:37;96936.56;;;-5.76;71.51
70072;BME280;57434;42.794;23.302;2023-02-16T02:59:43;96891.63;;;-5.94;71.56
70072;BME280;57434;42.794;23.302;2023-02-16T03:00:48;96929.66;;;-5.70;71.52
70072;BME280;57434;42.794;23.302;2023-02-16T03:01:55;96869.91;;;-5.87;70.97
70072;BME280;57434;42.794;23.302;2023-02-16T03:03:10;96920.78;;;-5.48;70.59
70072;BME280;57434;42.794;23.302;2023-02-16T03:04:15;96928.91;;;-5.51;70.90
70072;BME280;57434;42.794;23.302;2023-02-16T03:05:21;96772.16;;;-6.48;71.24
70072;BME280;57434;42.794;23.302;2023-02-16T03:06:29;96901.75;;;-5.60;71.79
70072;BME280;57434;42.794;23.302;2023-02-16T03:07:34;96930.72;;;-5.74;71.85
70072;BME280;57434;42.794;23.302;2023-02-16T03:08:40;96870.03;;;-5.99;72.16
70072;BME280;57434;42.794;23.302;2023-02-16T03:09:44;96915.94;;;-5.89;71.97
70072;BME280;57434;42.794;23.302;2023-02-16T03:11:00;96906.47;;;-5.76;71.87
70072;BME280;57434;42.794;23.302;2023-02-16T03:12:04;96920.47;;;-5.62;71.32
70072;BME280;57434;42.794;23.302;2023-02-16T03:13:16;96941.31;;;-5.73;71.79
70072;BME280;57434;42.794;23.302;2023-02-16T03:14:32;96923.25;;;-5.78;71.58
70072;BME280;57434;42.794;23.302;2023-02-16T03:15:36;96906.44;;;-5.95;71.68
70072;BME280;57434;42.794;23.302;2023-02-16T03:16:52;96911.34;;;-5.85;71.96
70072;BME280;57434;42.794;23.302;2023-02-16T03:17:56;96856.59;;;-6.24;71.92
70072;BME280;57434;42.794;23.302;2023-02-16T03:18:59;96893.03;;;-6.00;72.11
70072;BME280;57434;42.794;23.302;2023-02-16T03:20:05;96809.84;;;-6.54;71.52
70072;BME280;57434;42.794;23.302;2023-02-16T03:21:12;96898.31;;;-6.07;71.44
70072;BME280;57434;42.794;23.302;2023-02-16T03:22:15;96889.69;;;-6.09;71.44
70072;BME280;57434;42.794;23.302;2023-02-16T03:23:16;96654.53;;;-7.72;71.63
70072;BME280;57434;42.794;23.302;2023-02-16T03:24:28;96896.31;;;-5.95;71.50
70072;BME280;57434;42.794;23.302;2023-02-16T03:25:34;96897.44;;;-5.96;71.27
70072;BME280;57434;42.794;23.302;2023-02-16T03:26:36;96723.44;;;-7.12;71.42
70072;BME280;57434;42.794;23.302;2023-02-16T03:27:40;96912.22;;;-5.81;71.33
70072;BME280;57434;42.794;23.302;2023-02-16T03:28:43;96918.22;;;-5.75;71.55
70072;BME280;57434;42.794;23.302;2023-02-16T03:29:47;96862.03;;;-6.08;70.68
70072;BME280;57434;42.794;23.302;2023-02-16T03:30:51;96845.91;;;-6.45;70.99
70072;BME280;57434;42.794;23.302;2023-02-16T03:31:54;96901.69;;;-6.30;70.99
70072;BME280;57434;42.794;23.302;2023-02-16T03:32:57;96915.16;;;-6.37;71.76
70072;BME280;57434;42.794;23.302;2023-02-16T03:33:59;96873.31;;;-6.41;71.50
70072;BME280;57434;42.794;23.302;2023-02-16T03:35:01;96948.91;;;-6.29;71.97
70072;BME280;57434;42.794;23.302;2023-02-16T03:36:04;96874.09;;;-6.72;72.02
70072;BME280;57434;42.794;23.302;2023-02-16T03:37:06;96934.28;;;-6.37;72.19
70072;BME280;57434;42.794;23.302;2023-02-16T03:38:08;96888.97;;;-6.69;72.63
70072;BME280;57434;42.794;23.302;2023-02-16T03:39:11;96742.47;;;-7.60;72.47
70072;BME280;57434;42.794;23.302;2023-02-16T03:40:15;96772.47;;;-7.44;72.78
70072;BME280;57434;42.794;23.302;2023-02-16T03:41:18;96908.28;;;-6.47;72.31
70072;BME280;57434;42.794;23.302;2023-02-16T03:42:22;96915.44;;;-6.26;72.42
70072;BME280;57434;42.794;23.302;2023-02-16T03:43:25;96879.47;;;-6.44;72.86
70072;BME280;57434;42.794;23.302;2023-02-16T03:44:27;96894.19;;;-6.17;73.06
70072;BME280;57434;42.794;23.302;2023-02-16T03:45:30;96917.97;;;-6.02;73.02
70072;BME280;57434;42.794;23.302;2023-02-16T03:46:33;96741.53;;;-7.20;73.14
70072;BME280;57434;42.794;23.302;2023-02-16T03:47:35;96920.00;;;-6.15;72.96
70072;BME280;57434;42.794;23.302;2023-02-16T03:48:36;96913.03;;;-6.43;72.54
70072;BME280;57434;42.794;23.302;2023-02-16T03:49:38;96882.28;;;-6.40;72.94
70072;BME280;57434;42.794;23.302;2023-02-16T03:50:40;96919.84;;;-6.22;73.04
70072;BME280;57434;42.794;23.302;2023-02-16T03:51:41;96903.19;;;-6.32;73.64
70072;BME280;57434;42.794;23.302;2023-02-16T03:52:43;96905.81;;;-6.52;73.46
70072;BME280;57434;42.794;23.302;2023-02-16T03:53:45;96875.16;;;-6.45;73.32
70072;BME280;57434;42.794;23.302;2023-02-16T03:54:47;96763.63;;;-7.25;73.32
70072;BME280;57434;42.794;23.302;2023-02-16T03:55:48;96878.97;;;-6.34;73.40
70072;BME280;57434;42.794;23.302;2023-02-16T03:56:50;96901.53;;;-6.21;74.03
70072;BME280;57434;42.794;23.302;2023-02-16T03:57:52;96774.44;;;-6.82;74.27
70072;BME280;57434;42.794;23.302;2023-02-16T03:58:54;96831.56;;;-6.41;74.07
70072;BME280;57434;42.794;23.302;2023-02-16T03:59:55;96861.75;;;-6.19;74.06
70072;BME280;57434;42.794;23.302;2023-02-16T04:00:59;96912.81;;;-5.72;74.50
70072;BME280;57434;42.794;23.302;2023-02-16T04:02:01;96893.53;;;-5.79;74.54
70072;BME280;57434;42.794;23.302;2023-02-16T04:03:04;96907.53;;;-5.81;74.92
70072;BME280;57434;42.794;23.302;2023-02-16T04:04:06;96865.88;;;-5.93;75.05
70072;BME280;57434;42.794;23.302;2023-02-16T04:05:08;96911.81;;;-5.64;74.87
70072;BME280;57434;42.794;23.302;2023-02-16T04:06:09;96900.16;;;-5.61;74.78
70072;BME280;57434;42.794;23.302;2023-02-16T04:07:11;96724.72;;;-6.75;74.62
70072;BME280;57434;42.794;23.302;2023-02-16T04:08:13;96665.81;;;-7.11;74.51
70072;BME280;57434;42.794;23.302;2023-02-16T04:09:15;96679.00;;;-7.13;74.72
70072;BME280;57434;42.794;23.302;2023-02-16T04:10:16;96794.75;;;-6.32;74.43
70072;BME280;57434;42.794;23.302;2023-02-16T04:11:18;96823.03;;;-6.40;74.15
70072;BME280;57434;42.794;23.302;2023-02-16T04:12:20;96900.03;;;-5.68;74.04
70072;BME280;57434;42.794;23.302;2023-02-16T04:13:23;96875.38;;;-5.87;74.31
70072;BME280;57434;42.794;23.302;2023-02-16T04:14:24;96900.09;;;-5.64;74.08
70072;BME280;57434;42.794;23.302;2023-02-16T04:15:28;96884.34;;;-5.71;74.33
70072;BME280;57434;42.794;23.302;2023-02-16T04:16:30;96893.69;;;-5.72;74.20
70072;BME280;57434;42.794;23.302;2023-02-16T04:17:32;96883.69;;;-6.15;74.22
70072;BME280;57434;42.794;23.302;2023-02-16T04:18:33;96899.47;;;-5.93;74.47
70072;BME280;57434;42.794;23.302;2023-02-16T04:19:35;96794.69;;;-6.83;73.96
70072;BME280;57434;42.794;23.302;2023-02-16T04:20:37;96907.34;;;-6.23;74.29
70072;BME280;57434;42.794;23.302;2023-02-16T04:21:38;96879.22;;;-6.23;74.14
70072;BME280;57434;42.794;23.302;2023-02-16T04:22:40;96761.44;;;-7.20;73.92
70072;BME280;57434;42.794;23.302;2023-02-16T04:23:42;96923.28;;;-6.25;74.15
70072;BME280;57434;42.794;23.302;2023-02-16T04:24:44;96898.84;;;-6.18;73.99
70072;BME280;57434;42.794;23.302;2023-02-16T04:25:45;96864.00;;;-6.56;73.63
70072;BME280;57434;42.794;23.302;2023-02-16T04:26:47;96860.31;;;-6.48;73.84
70072;BME280;57434;42.794;23.302;2023-02-16T04:27:49;96901.44;;;-6.25;73.78
70072;BME280;57434;42.794;23.302;2023-02-16T04:28:51;96843.09;;;-6.80;73.79
70072;BME280;57434;42.794;23.302;2023-02-16T04:29:53;96902.09;;;-6.43;73.73
70072;BME280;57434;42.794;23.302;2023-02-16T04:30:55;96900.44;;;-6.17;73.57
70072;BME280;57434;42.794;23.302;2023-02-16T04:31:57;96747.38;;;-7.06;73.39
70072;BME280;57434;42.794;23.302;2023-02-16T04:32:59;96738.91;;;-7.01;73.23
70072;BME280;57434;42.794;23.302;2023-02-16T04:34:01;96833.50;;;-6.42;73.06
70072;BME280;57434;42.794;23.302;2023-02-16T04:35:03;96865.28;;;-6.18;73.25
70072;BME280;57434;42.794;23.302;2023-02-16T04:36:05;96897.69;;;-5.85;73.14
70072;BME280;57434;42.794;23.302;2023-02-16T04:37:07;96905.41;;;-6.22;72.86
70072;BME280;57434;42.794;23.302;2023-02-16T04:38:09;96897.81;;;-5.97;72.52
70072;BME280;57434;42.794;23.302;2023-02-16T04:39:11;96756.69;;;-6.91;72.34
70072;BME280;57434;42.794;23.302;2023-02-16T04:40:14;96876.16;;;-6.22;72.66
70072;BME280;57434;42.794;23.302;2023-02-16T04:41:16;96906.44;;;-5.95;72.78
70072;BME280;57434;42.794;23.302;2023-02-16T04:42:17;96835.09;;;-6.41;72.62
70072;BME280;57434;42.794;23.302;2023-02-16T04:43:19;96904.50;;;-6.11;72.76
70072;BME280;57434;42.794;23.302;2023-02-16T04:44:21;96906.22;;;-5.87;72.81
70072;BME280;57434;42.794;23.302;2023-02-16T04:45:22;96792.50;;;-6.61;72.59
70072;BME280;57434;42.794;23.302;2023-02-16T04:46:24;96881.75;;;-6.15;72.92
70072;BME280;57434;42.794;23.302;2023-02-16T04:47:26;96916.94;;;-5.97;72.54
70072;BME280;57434;42.794;23.302;2023-02-16T04:48:28;96735.75;;;-7.19;71.93
70072;BME280;57434;42.794;23.302;2023-02-16T04:49:30;96827.34;;;-6.70;71.81
70072;BME280;57434;42.794;23.302;2023-02-16T04:50:31;96857.63;;;-6.44;71.45
70072;BME280;57434;42.794;23.302;2023-02-16T04:51:33;96866.97;;;-6.45;71.57
70072;BME280;57434;42.794;23.302;2023-02-16T04:52:35;96909.44;;;-6.32;71.84
70072;BME280;57434;42.794;23.302;2023-02-16T04:53:37;96726.06;;;-7.32;71.92
70072;BME280;57434;42.794;23.302;2023-02-16T04:54:39;96871.91;;;-6.51;71.83
70072;BME280;57434;42.794;23.302;2023-02-16T04:55:48;96907.75;;;-6.36;72.28
70072;BME280;57434;42.794;23.302;2023-02-16T04:56:50;96741.50;;;-7.52;72.86
70072;BME280;57434;42.794;23.302;2023-02-16T04:57:51;96899.72;;;-6.45;73.25
70072;BME280;57434;42.794;23.302;2023-02-16T04:58:54;96921.75;;;-6.54;74.42
70072;BME280;57434;42.794;23.302;2023-02-16T04:59:56;96892.84;;;-6.70;75.49
70072;BME280;57434;42.794;23.302;2023-02-16T05:00:57;96774.47;;;-7.57;76.24
70072;BME280;57434;42.794;23.302;2023-02-16T05:01:59;96918.75;;;-6.64;76.69
70072;BME280;57434;42.794;23.302;2023-02-16T05:03:01;96907.63;;;-6.71;76.89
70072;BME280;57434;42.794;23.302;2023-02-16T05:04:03;96764.66;;;-7.73;77.10
70072;BME280;57434;42.794;23.302;2023-02-16T05:05:05;96765.66;;;-7.66;76.99
70072;BME280;57434;42.794;23.302;2023-02-16T05:06:07;96861.44;;;-7.24;76.99
70072;BME280;57434;42.794;23.302;2023-02-16T05:07:08;96926.69;;;-6.59;77.08
70072;BME280;57434;42.794;23.302;2023-02-16T05:08:10;96814.34;;;-7.36;77.11
70072;BME280;57434;42.794;23.302;2023-02-16T05:09:12;96931.44;;;-6.56;77.46
70072;BME280;57434;42.794;23.302;2023-02-16T05:10:14;96870.72;;;-6.97;77.56
70072;BME280;57434;42.794;23.302;2023-02-16T05:11:15;96935.91;;;-6.64;77.59
70072;BME280;57434;42.794;23.302;2023-02-16T05:12:17;96888.00;;;-6.93;78.60
70072;BME280;57434;42.794;23.302;2023-02-16T05:13:19;96880.69;;;-6.89;78.66
70072;BME280;57434;42.794;23.302;2023-02-16T05:14:26;96914.66;;;-6.70;78.78
70072;BME280;57434;42.794;23.302;2023-02-16T05:15:28;96765.53;;;-7.69;78.42
70072;BME280;57434;42.794;23.302;2023-02-16T05:16:30;96904.03;;;-6.75;78.74
70072;BME280;57434;42.794;23.302;2023-02-16T05:17:32;96710.84;;;-8.04;78.70
70072;BME280;57434;42.794;23.302;2023-02-16T05:18:33;96910.25;;;-6.91;79.67
70072;BME280;57434;42.794;23.302;2023-02-16T05:19:35;96935.00;;;-6.68;80.23
70072;BME280;57434;42.794;23.302;2023-02-16T05:20:37;96861.38;;;-7.11;80.85
70072;BME280;57434;42.794;23.302;2023-02-16T05:21:39;96823.78;;;-7.34;80.60
70072;BME280;57434;42.794;23.302;2023-02-16T05:22:40;96914.16;;;-6.60;80.44
70072;BME280;57434;42.794;23.302;2023-02-16T05:23:42;96721.41;;;-7.75;80.53
70072;BME280;57434;42.794;23.302;2023-02-16T05:24:44;96928.91;;;-6.18;80.37
70072;BME280;57434;42.794;23.302;2023-02-16T05:25:46;96935.59;;;-6.15;80.50
70072;BME280;57434;42.794;23.302;2023-02-16T05:26:47;96781.59;;;-7.08;80.20
70072;BME280;57434;42.794;23.302;2023-02-16T05:27:49;96933.22;;;-6.01;80.10
70072;BME280;57434;42.794;23.302;2023-02-16T05:28:51;96959.38;;;-6.16;79.62
70072;BME280;57434;42.794;23.302;2023-02-16T05:29:53;96941.56;;;-6.41;79.56
70072;BME280;57434;42.794;23.302;2023-02-16T05:30:55;96947.66;;;-6.32;80.10
70072;BME280;57434;42.794;23.302;2023-02-16T05:31:57;96842.50;;;-7.04;80.11
70072;BME280;57434;42.794;23.302;2023-02-16T05:32:59;96942.00;;;-6.39;80.88
70072;BME280;57434;42.794;23.302;2023-02-16T05:34:00;96885.97;;;-6.80;81.09
70072;BME280;57434;42.794;23.302;2023-02-16T05:35:02;96902.16;;;-6.71;81.07
70072;BME280;57434;42.794;23.302;2023-02-16T05:36:04;96941.75;;;-6.34;81.06
70072;BME280;57434;42.794;23.302;2023-02-16T05:37:06;96931.34;;;-6.44;81.31
70072;BME280;57434;42.794;23.302;2023-02-16T05:38:08;96911.63;;;-6.53;81.26
70072;BME280;57434;42.794;23.302;2023-02-16T05:39:09;96930.91;;;-6.46;81.45
70072;BME280;57434;42.794;23.302;2023-02-16T05:40:11;96941.81;;;-6.46;81.43
70072;BME280;57434;42.794;23.302;2023-02-16T05:41:14;96960.34;;;-6.39;81.41
70072;BME280;57434;42.794;23.302;2023-02-16T05:42:16;96935.25;;;-6.29;81.33
70072;BME280;57434;42.794;23.302;2023-02-16T05:43:17;96873.84;;;-6.51;80.74
70072;BME280;57434;42.794;23.302;2023-02-16T05:44:20;96805.50;;;-6.86;80.15
70072;BME280;57434;42.794;23.302;2023-02-16T05:45:22;96916.81;;;-6.17;79.94
70072;BME280;57434;42.794;23.302;2023-02-16T05:46:25;96811.94;;;-6.78;79.26
70072;BME280;57434;42.794;23.302;2023-02-16T05:47:27;96971.66;;;-5.94;79.19
70072;BME280;57434;42.794;23.302;2023-02-16T05:48:29;96786.06;;;-7.16;78.98
70072;BME280;57434;42.794;23.302;2023-02-16T05:49:30;96948.66;;;-6.08;79.08
70072;BME280;57434;42.794;23.302;2023-02-16T05:50:32;96974.81;;;-6.23;79.15
70072;BME280;57434;42.794;23.302;2023-02-16T05:51:35;96983.13;;;-6.20;79.78
70072;BME280;57434;42.794;23.302;2023-02-16T05:52:37;96933.84;;;-6.23;79.92
70072;BME280;57434;42.794;23.302;2023-02-16T05:53:40;96832.09;;;-6.83;80.31
70072;BME280;57434;42.794;23.302;2023-02-16T05:54:41;96796.72;;;-7.11;80.65
70072;BME280;57434;42.794;23.302;2023-02-16T05:55:43;96944.06;;;-6.04;80.96
70072;BME280;57434;42.794;23.302;2023-02-16T05:56:47;96831.66;;;-6.69;80.85
70072;BME280;57434;42.794;23.302;2023-02-16T05:57:49;96956.47;;;-5.91;81.10
70072;BME280;57434;42.794;23.302;2023-02-16T05:58:51;96768.50;;;-7.03;81.05
70072;BME280;57434;42.794;23.302;2023-02-16T05:59:53;96807.03;;;-6.89;80.89
70072;BME280;57434;42.794;23.302;2023-02-16T06:00:54;96937.09;;;-5.86;80.93
70072;BME280;57434;42.794;23.302;2023-02-16T06:01:56;96911.38;;;-6.17;81.03